sensor_id;sensor_type;location;lat;lon;timestamp;pressure;altitude;pressure_sealevel;temperature;humidity
71666;BME280;59503;53.486;10.196;2023-10-19T00:00:40;100351.09;;;7.06;100.00
71666;BME280;59503;53.486;10.196;2023-10-19T00:03:10;100348.41;;;7.06;100.00
71666;BME280;59503;53.486;10.196;2023-10-19T00:05:37;100335.25;;;7.05;100.00
71666;BME280;59503;53.486;10.196;2023-10-19T00:08:04;100329.84;;;7.05;100.00
71666;BME280;59503;53.486;10.196;2023-10-19T00:10:52;100315.53;;;7.04;100.00
71666;BME280;59503;53.486;10.196;2023-10-19T00:13:41;100315.19;;;7.06;100.00
71666;BME280;59503;53.486;10.196;2023-10-19T00:16:09;100301.94;;;7.01;100.00
71666;BME280;59503;53.486;10.196;2023-10-19T00:18:43;100295.75;;;7.00;100.00
71666;BME280;59503;53.486;10.196;2023-10-19T00:21:08;100301.16;;;7.00;100.00
71666;BME280;59503;53.486;10.196;2023-10-19T00:23:51;100301.25;;;7.04;100.00
71666;BME280;59503;53.486;10.196;2023-10-19T00:26:20;100293.16;;;7.04;100.00
71666;BME280;59503;53.486;10.196;2023-10-19T00:28:46;100280.22;;;6.97;100.00
71666;BME280;59503;53.486;10.196;2023-10-19T00:31:15;100281.81;;;6.98;100.00
71666;BME280;59503;53.486;10.196;2023-10-19T00:33:40;100283.09;;;7.04;100.00
71666;BME280;59503;53.486;10.196;2023-10-19T00:36:07;100283.81;;;7.01;100.00
71666;BME280;59503;53.486;10.196;2023-10-19T00:38:34;100286.16;;;7.03;100.00
71666;BME280;59503;53.486;10.196;2023-10-19T00:41:06;100274.91;;;7.01;100.00
71666;BME280;59503;53.486;10.196;2023-10-19T00:43:36;100278.16;;;7.06;100.00
71666;BME280;59503;53.486;10.196;2023-10-19T00:46:06;100273.09;;;7.05;100.00
71666;BME280;59503;53.486;10.196;2023-10-19T00:48:35;100266.88;;;7.04;100.00
71666;BME280;59503;53.486;10.196;2023-10-19T00:51:02;100268.13;;;7.07;100.00
71666;BME280;59503;53.486;10.196;2023-10-19T00:53:54;100254.88;;;7.02;100.00
71666;BME280;59503;53.486;10.196;2023-10-19T00:56:21;100270.38;;;7.05;100.00
71666;BME280;59503;53.486;10.196;2023-10-19T00:58:49;100257.59;;;7.02;100.00
71666;BME280;59503;53.486;10.196;2023-10-19T01:01:23;100260.72;;;7.04;100.00
71666;BME280;59503;53.486;10.196;2023-10-19T01:03:52;100265.88;;;7.09;100.00
71666;BME280;59503;53.486;10.196;2023-10-19T01:06:22;100253.28;;;7.01;100.00
71666;BME280;59503;53.486;10.196;2023-10-19T01:08:48;100260.38;;;7.05;100.00
71666;BME280;59503;53.486;10.196;2023-10-19T01:11:16;100239.09;;;7.04;100.00
71666;BME280;59503;53.486;10.196;2023-10-19T01:13:46;100237.97;;;7.05;100.00
71666;BME280;59503;53.486;10.196;2023-10-19T01:16:15;100233.25;;;7.02;100.00
71666;BME280;59503;53.486;10.196;2023-10-19T01:18:52;100233.69;;;7.04;100.00
71666;BME280;59503;53.486;10.196;2023-10-19T01:21:24;100234.56;;;7.08;100.00
71666;BME280;59503;53.486;10.196;2023-10-19T01:24:06;100222.19;;;7.07;100.00
71666;BME280;59503;53.486;10.196;2023-10-19T01:26:32;100212.41;;;7.02;100.00
71666;BME280;59503;53.486;10.196;2023-10-19T01:29:02;100213.28;;;7.06;100.00
71666;BME280;59503;53.486;10.196;2023-10-19T01:31:35;100206.31;;;7.05;100.00
71666;BME280;59503;53.486;10.196;2023-10-19T01:34:03;100203.63;;;7.05;100.00
71666;BME280;59503;53.486;10.196;2023-10-19T01:36:34;100193.16;;;7.04;100.00
71666;BME280;59503;53.486;10.196;2023-10-19T01:39:10;100183.91;;;7.05;100.00
71666;BME280;59503;53.486;10.196;2023-10-19T01:41:37;100180.78;;;7.03;100.00
71666;BME280;59503;53.486;10.196;2023-10-19T01:44:03;100187.06;;;7.07;100.00
71666;BME280;59503;53.486;10.196;2023-10-19T01:46:33;100178.50;;;7.05;100.00
71666;BME280;59503;53.486;10.196;2023-10-19T01:49:00;100176.59;;;7.05;100.00
71666;BME280;59503;53.486;10.196;2023-10-19T01:51:30;100157.59;;;7.02;100.00
71666;BME280;59503;53.486;10.196;2023-10-19T01:53:58;100158.72;;;7.01;100.00
71666;BME280;59503;53.486;10.196;2023-10-19T01:56:26;100151.56;;;7.08;100.00
71666;BME280;59503;53.486;10.196;2023-10-19T01:58:52;100151.56;;;7.08;100.00
71666;BME280;59503;53.486;10.196;2023-10-19T02:01:20;100152.38;;;7.09;100.00
71666;BME280;59503;53.486;10.196;2023-10-19T02:03:49;100155.75;;;7.06;100.00
71666;BME280;59503;53.486;10.196;2023-10-19T02:06:25;100139.97;;;7.08;100.00
71666;BME280;59503;53.486;10.196;2023-10-19T02:08:58;100144.53;;;7.04;100.00
71666;BME280;59503;53.486;10.196;2023-10-19T02:11:48;100149.31;;;7.10;100.00
71666;BME280;59503;53.486;10.196;2023-10-19T02:14:17;100146.97;;;7.09;100.00
71666;BME280;59503;53.486;10.196;2023-10-19T02:16:55;100143.91;;;7.10;100.00
71666;BME280;59503;53.486;10.196;2023-10-19T02:19:26;100132.31;;;7.10;100.00
71666;BME280;59503;53.486;10.196;2023-10-19T02:21:57;100135.44;;;7.12;100.00
71666;BME280;59503;53.486;10.196;2023-10-19T02:24:24;100122.19;;;7.07;100.00
71666;BME280;59503;53.486;10.196;2023-10-19T02:26:57;100143.09;;;7.10;100.00
71666;BME280;59503;53.486;10.196;2023-10-19T02:29:23;100134.66;;;7.11;100.00
71666;BME280;59503;53.486;10.196;2023-10-19T02:31:48;100133.09;;;7.10;100.00
71666;BME280;59503;53.486;10.196;2023-10-19T02:34:15;100118.78;;;7.10;100.00
71666;BME280;59503;53.486;10.196;2023-10-19T02:36:41;100121.50;;;7.10;100.00
71666;BME280;59503;53.486;10.196;2023-10-19T02:39:09;100118.44;;;7.11;100.00
71666;BME280;59503;53.486;10.196;2023-10-19T02:41:39;100116.09;;;7.10;100.00
71666;BME280;59503;53.486;10.196;2023-10-19T02:44:21;100121.06;;;7.08;100.00
71666;BME280;59503;53.486;10.196;2023-10-19T02:46:52;100118.50;;;7.15;100.00
71666;BME280;59503;53.486;10.196;2023-10-19T02:49:22;100119.22;;;7.12;100.00
71666;BME280;59503;53.486;10.196;2023-10-19T02:51:50;100116.00;;;7.06;100.00
71666;BME280;59503;53.486;10.196;2023-10-19T02:54:20;100117.63;;;7.11;100.00
71666;BME280;59503;53.486;10.196;2023-10-19T02:56:55;100110.25;;;7.08;100.00
71666;BME280;59503;53.486;10.196;2023-10-19T02:59:23;100116.97;;;7.14;100.00
71666;BME280;59503;53.486;10.196;2023-10-19T03:01:54;100116.97;;;7.14;100.00
71666;BME280;59503;53.486;10.196;2023-10-19T03:04:27;100122.00;;;7.15;100.00
71666;BME280;59503;53.486;10.196;2023-10-19T03:06:54;100113.91;;;7.15;100.00
71666;BME280;59503;53.486;10.196;2023-10-19T03:09:21;100120.84;;;7.16;100.00
71666;BME280;59503;53.486;10.196;2023-10-19T03:11:53;100115.09;;;7.18;100.00
71666;BME280;59503;53.486;10.196;2023-10-19T03:14:21;100108.91;;;7.17;100.00
71666;BME280;59503;53.486;10.196;2023-10-19T03:16:51;100099.00;;;7.06;100.00
71666;BME280;59503;53.486;10.196;2023-10-19T03:19:16;100102.94;;;7.08;100.00
71666;BME280;59503;53.486;10.196;2023-10-19T03:21:42;100105.13;;;7.03;100.00
71666;BME280;59503;53.486;10.196;2023-10-19T03:24:09;100090.25;;;6.93;100.00
71666;BME280;59503;53.486;10.196;2023-10-19T03:26:38;100100.91;;;6.86;100.00
71666;BME280;59503;53.486;10.196;2023-10-19T03:29:08;100095.59;;;6.74;100.00
71666;BME280;59503;53.486;10.196;2023-10-19T03:31:38;100083.34;;;6.61;100.00
71666;BME280;59503;53.486;10.196;2023-10-19T03:34:11;100092.50;;;6.57;100.00
71666;BME280;59503;53.486;10.196;2023-10-19T03:36:38;100081.53;;;6.50;100.00
71666;BME280;59503;53.486;10.196;2023-10-19T03:39:04;100086.75;;;6.43;100.00
71666;BME280;59503;53.486;10.196;2023-10-19T03:41:42;100085.78;;;6.35;100.00
71666;BME280;59503;53.486;10.196;2023-10-19T03:44:12;100085.72;;;6.32;100.00
71666;BME280;59503;53.486;10.196;2023-10-19T03:46:49;100083.72;;;6.28;100.00
71666;BME280;59503;53.486;10.196;2023-10-19T03:49:29;100065.16;;;6.27;100.00
71666;BME280;59503;53.486;10.196;2023-10-19T03:52:04;100081.97;;;6.20;100.00
71666;BME280;59503;53.486;10.196;2023-10-19T03:54:39;100081.63;;;6.22;100.00
71666;BME280;59503;53.486;10.196;2023-10-19T03:57:06;100061.88;;;6.18;100.00
71666;BME280;59503;53.486;10.196;2023-10-19T03:59:37;100064.94;;;6.16;100.00
71666;BME280;59503;53.486;10.196;2023-10-19T04:02:03;100070.66;;;6.15;100.00
71666;BME280;59503;53.486;10.196;2023-10-19T04:04:38;100074.94;;;6.16;100.00
71666;BME280;59503;53.486;10.196;2023-10-19T04:07:04;100062.81;;;6.10;100.00
71666;BME280;59503;53.486;10.196;2023-10-19T04:09:36;100056.22;;;6.07;100.00
71666;BME280;59503;53.486;10.196;2023-10-19T04:12:22;100048.81;;;6.04;100.00
71666;BME280;59503;53.486;10.196;2023-10-19T04:14:48;100065.00;;;6.04;100.00
71666;BME280;59503;53.486;10.196;2023-10-19T04:17:13;100064.56;;;6.02;100.00
71666;BME280;59503;53.486;10.196;2023-10-19T04:19:39;100049.53;;;6.01;100.00
71666;BME280;59503;53.486;10.196;2023-10-19T04:22:04;100052.22;;;6.01;100.00
71666;BME280;59503;53.486;10.196;2023-10-19T04:24:30;100050.28;;;6.02;100.00
71666;BME280;59503;53.486;10.196;2023-10-19T04:26:58;100052.47;;;5.96;100.00
71666;BME280;59503;53.486;10.196;2023-10-19T04:29:24;100049.00;;;5.96;100.00
71666;BME280;59503;53.486;10.196;2023-10-19T04:31:53;100048.47;;;5.90;100.00
71666;BME280;59503;53.486;10.196;2023-10-19T04:34:22;100048.19;;;5.95;100.00
71666;BME280;59503;53.486;10.196;2023-10-19T04:36:48;100047.31;;;5.91;100.00
71666;BME280;59503;53.486;10.196;2023-10-19T04:39:13;100038.38;;;5.87;100.00
71666;BME280;59503;53.486;10.196;2023-10-19T04:41:40;100046.03;;;5.85;100.00
71666;BME280;59503;53.486;10.196;2023-10-19T04:44:06;100044.56;;;5.88;100.00
71666;BME280;59503;53.486;10.196;2023-10-19T04:46:33;100043.69;;;5.84;100.00
71666;BME280;59503;53.486;10.196;2023-10-19T04:48:59;100043.78;;;5.87;100.00
71666;BME280;59503;53.486;10.196;2023-10-19T04:51:25;100040.19;;;5.83;100.00
71666;BME280;59503;53.486;10.196;2023-10-19T04:53:50;100042.19;;;5.86;100.00
71666;BME280;59503;53.486;10.196;2023-10-19T04:56:15;100045.91;;;5.82;100.00
71666;BME280;59503;53.486;10.196;2023-10-19T04:58:41;100044.34;;;5.81;100.00
71666;BME280;59503;53.486;10.196;2023-10-19T05:01:07;100046.72;;;5.82;100.00
71666;BME280;59503;53.486;10.196;2023-10-19T05:03:32;100039.06;;;5.84;100.00
71666;BME280;59503;53.486;10.196;2023-10-19T05:05:58;100037.94;;;5.85;100.00
71666;BME280;59503;53.486;10.196;2023-10-19T05:08:24;100030.63;;;5.86;100.00
71666;BME280;59503;53.486;10.196;2023-10-19T05:10:54;100022.91;;;5.84;100.00
71666;BME280;59503;53.486;10.196;2023-10-19T05:13:23;100018.84;;;5.78;100.00
71666;BME280;59503;53.486;10.196;2023-10-19T05:15:50;100013.22;;;5.83;100.00
71666;BME280;59503;53.486;10.196;2023-10-19T05:18:15;100008.28;;;5.85;100.00
71666;BME280;59503;53.486;10.196;2023-10-19T05:20:41;99997.47;;;5.85;100.00
71666;BME280;59503;53.486;10.196;2023-10-19T05:23:07;100004.78;;;5.85;100.00
71666;BME280;59503;53.486;10.196;2023-10-19T05:25:34;99989.75;;;5.84;100.00
71666;BME280;59503;53.486;10.196;2023-10-19T05:28:03;99990.53;;;5.84;100.00
71666;BME280;59503;53.486;10.196;2023-10-19T05:30:28;99992.88;;;5.86;100.00
71666;BME280;59503;53.486;10.196;2023-10-19T05:32:55;99992.09;;;5.85;100.00
71666;BME280;59503;53.486;10.196;2023-10-19T05:35:21;99989.75;;;5.84;100.00
71666;BME280;59503;53.486;10.196;2023-10-19T05:37:52;99994.78;;;5.85;100.00
71666;BME280;59503;53.486;10.196;2023-10-19T05:40:17;99991.72;;;5.87;100.00
71666;BME280;59503;53.486;10.196;2023-10-19T05:42:44;99977.03;;;5.84;100.00
71666;BME280;59503;53.486;10.196;2023-10-19T05:45:12;99979.03;;;5.87;100.00
71666;BME280;59503;53.486;10.196;2023-10-19T05:47:42;99984.34;;;5.84;100.00
71666;BME280;59503;53.486;10.196;2023-10-19T05:50:11;99999.81;;;5.87;100.00
71666;BME280;59503;53.486;10.196;2023-10-19T05:52:41;99984.44;;;5.87;100.00
71666;BME280;59503;53.486;10.196;2023-10-19T05:55:08;99979.03;;;5.87;100.00
71666;BME280;59503;53.486;10.196;2023-10-19T05:57:36;99985.56;;;5.86;100.00
71666;BME280;59503;53.486;10.196;2023-10-19T06:00:04;99984.53;;;5.91;100.00
71666;BME280;59503;53.486;10.196;2023-10-19T06:02:30;99978.00;;;5.92;100.00
71666;BME280;59503;53.486;10.196;2023-10-19T06:04:56;99980.25;;;5.90;100.00
71666;BME280;59503;53.486;10.196;2023-10-19T06:07:22;99973.66;;;5.87;100.00
71666;BME280;59503;53.486;10.196;2023-10-19T06:09:50;99986.44;;;5.90;100.00
71666;BME280;59503;53.486;10.196;2023-10-19T06:12:15;99987.97;;;5.91;100.00
71666;BME280;59503;53.486;10.196;2023-10-19T06:14:41;99974.75;;;5.86;100.00
71666;BME280;59503;53.486;10.196;2023-10-19T06:17:06;99988.44;;;5.93;100.00
71666;BME280;59503;53.486;10.196;2023-10-19T06:19:32;99971.81;;;5.91;100.00
71666;BME280;59503;53.486;10.196;2023-10-19T06:21:57;99976.94;;;5.96;100.00
71666;BME280;59503;53.486;10.196;2023-10-19T06:24:23;99969.53;;;5.93;100.00
71666;BME280;59503;53.486;10.196;2023-10-19T06:26:48;99969.81;;;5.88;100.00
71666;BME280;59503;53.486;10.196;2023-10-19T06:29:13;99979.22;;;5.94;100.00
71666;BME280;59503;53.486;10.196;2023-10-19T06:31:39;99990.00;;;5.94;100.00
71666;BME280;59503;53.486;10.196;2023-10-19T06:34:04;100008.09;;;5.94;100.00
71666;BME280;59503;53.486;10.196;2023-10-19T06:36:30;99998.44;;;5.93;100.00
71666;BME280;59503;53.486;10.196;2023-10-19T06:38:55;100000.72;;;5.91;100.00
71666;BME280;59503;53.486;10.196;2023-10-19T06:41:21;99993.06;;;5.93;100.00
71666;BME280;59503;53.486;10.196;2023-10-19T06:43:47;100003.59;;;5.98;100.00
71666;BME280;59503;53.486;10.196;2023-10-19T06:46:12;99995.81;;;5.96;100.00
71666;BME280;59503;53.486;10.196;2023-10-19T06:48:40;99993.56;;;5.98;100.00
71666;BME280;59503;53.486;10.196;2023-10-19T06:51:05;99994.00;;;6.00;100.00
71666;BME280;59503;53.486;10.196;2023-10-19T06:53:31;99999.03;;;6.02;100.00
71666;BME280;59503;53.486;10.196;2023-10-19T06:55:58;100005.56;;;6.01;100.00
71666;BME280;59503;53.486;10.196;2023-10-19T06:58:24;100007.91;;;6.02;100.00
71666;BME280;59503;53.486;10.196;2023-10-19T07:00:52;100006.38;;;6.01;100.00
71666;BME280;59503;53.486;10.196;2023-10-19T07:03:32;99999.84;;;6.02;100.00
71666;BME280;59503;53.486;10.196;2023-10-19T07:05:58;99997.91;;;6.03;100.00
71666;BME280;59503;53.486;10.196;2023-10-19T07:08:24;99998.00;;;6.06;100.00
71666;BME280;59503;53.486;10.196;2023-10-19T07:10:52;99988.69;;;6.04;100.00
71666;BME280;59503;53.486;10.196;2023-10-19T07:13:19;99994.88;;;6.04;100.00
71666;BME280;59503;53.486;10.196;2023-10-19T07:15:46;99994.53;;;6.06;100.00
71666;BME280;59503;53.486;10.196;2023-10-19T07:18:13;99991.91;;;6.09;100.00
71666;BME280;59503;53.486;10.196;2023-10-19T07:20:39;99991.13;;;6.09;100.00
71666;BME280;59503;53.486;10.196;2023-10-19T07:23:05;99981.03;;;6.06;100.00
71666;BME280;59503;53.486;10.196;2023-10-19T07:25:50;99986.44;;;6.06;100.00
71666;BME280;59503;53.486;10.196;2023-10-19T07:28:25;99988.84;;;6.11;100.00
71666;BME280;59503;53.486;10.196;2023-10-19T07:30:53;99985.28;;;6.07;100.00
71666;BME280;59503;53.486;10.196;2023-10-19T07:33:19;99985.72;;;6.09;100.00
71666;BME280;59503;53.486;10.196;2023-10-19T07:35:49;99985.47;;;6.14;100.00
71666;BME280;59503;53.486;10.196;2023-10-19T07:38:22;99978.59;;;6.16;100.00
71666;BME280;59503;53.486;10.196;2023-10-19T07:40:48;99971.97;;;6.14;100.00
71666;BME280;59503;53.486;10.196;2023-10-19T07:43:13;99981.69;;;6.18;100.00
71666;BME280;59503;53.486;10.196;2023-10-19T07:45:39;99976.66;;;6.17;100.00
71666;BME280;59503;53.486;10.196;2023-10-19T07:48:05;99985.19;;;6.19;100.00
71666;BME280;59503;53.486;10.196;2023-10-19T07:50:37;99988.41;;;6.24;100.00
71666;BME280;59503;53.486;10.196;2023-10-19T07:53:03;100002.66;;;6.25;100.00
71666;BME280;59503;53.486;10.196;2023-10-19T07:55:29;99997.63;;;6.23;100.00
71666;BME280;59503;53.486;10.196;2023-10-19T07:57:57;100001.91;;;6.24;100.00
71666;BME280;59503;53.486;10.196;2023-10-19T08:00:26;99999.19;;;6.24;100.00
71666;BME280;59503;53.486;10.196;2023-10-19T08:02:52;99992.22;;;6.23;100.00
71666;BME280;59503;53.486;10.196;2023-10-19T08:05:19;99988.41;;;6.24;100.00
71666;BME280;59503;53.486;10.196;2023-10-19T08:07:46;99981.03;;;6.21;100.00
71666;BME280;59503;53.486;10.196;2023-10-19T08:10:19;99969.09;;;6.22;100.00
71666;BME280;59503;53.486;10.196;2023-10-19T08:12:46;99957.56;;;6.25;100.00
71666;BME280;59503;53.486;10.196;2023-10-19T08:15:16;99965.69;;;6.25;100.00
71666;BME280;59503;53.486;10.196;2023-10-19T08:17:44;99953.75;;;6.26;100.00
71666;BME280;59503;53.486;10.196;2023-10-19T08:20:11;99951.56;;;6.32;100.00
71666;BME280;59503;53.486;10.196;2023-10-19T08:22:53;99952.34;;;6.32;100.00
71666;BME280;59503;53.486;10.196;2023-10-19T08:25:19;99940.00;;;6.32;100.00
71666;BME280;59503;53.486;10.196;2023-10-19T08:27:46;99935.72;;;6.30;100.00
71666;BME280;59503;53.486;10.196;2023-10-19T08:30:17;99941.13;;;6.30;100.00
71666;BME280;59503;53.486;10.196;2023-10-19T08:32:43;99928.34;;;6.27;100.00
71666;BME280;59503;53.486;10.196;2023-10-19T08:35:13;99917.03;;;6.22;100.00
71666;BME280;59503;53.486;10.196;2023-10-19T08:37:39;99927.53;;;6.27;100.00
71666;BME280;59503;53.486;10.196;2023-10-19T08:40:10;99915.19;;;6.26;100.00
71666;BME280;59503;53.486;10.196;2023-10-19T08:42:45;99918.69;;;6.26;100.00
71666;BME280;59503;53.486;10.196;2023-10-19T08:45:11;99932.19;;;6.26;100.00
71666;BME280;59503;53.486;10.196;2023-10-19T08:47:44;99937.22;;;6.28;100.00
71666;BME280;59503;53.486;10.196;2023-10-19T08:50:14;99941.38;;;6.25;100.00
71666;BME280;59503;53.486;10.196;2023-10-19T08:52:41;99942.97;;;6.26;100.00
71666;BME280;59503;53.486;10.196;2023-10-19T08:55:08;99963.13;;;6.32;100.00
71666;BME280;59503;53.486;10.196;2023-10-19T08:57:36;99957.75;;;6.32;100.00
71666;BME280;59503;53.486;10.196;2023-10-19T09:00:02;99948.56;;;6.37;100.00
71666;BME280;59503;53.486;10.196;2023-10-19T09:02:31;99946.31;;;6.39;100.00
71666;BME280;59503;53.486;10.196;2023-10-19T09:04:57;99945.97;;;6.41;100.00
71666;BME280;59503;53.486;10.196;2023-10-19T09:07:25;99939.72;;;6.37;100.00
71666;BME280;59503;53.486;10.196;2023-10-19T09:09:56;99946.47;;;6.46;100.00
71666;BME280;59503;53.486;10.196;2023-10-19T09:12:22;99948.09;;;6.51;100.00
71666;BME280;59503;53.486;10.196;2023-10-19T09:14:48;99940.28;;;6.46;100.00
71666;BME280;59503;53.486;10.196;2023-10-19T09:17:15;99949.97;;;6.47;100.00
71666;BME280;59503;53.486;10.196;2023-10-19T09:19:44;99959.19;;;6.46;100.00
71666;BME280;59503;53.486;10.196;2023-10-19T09:22:10;99975.38;;;6.46;100.00
71666;BME280;59503;53.486;10.196;2023-10-19T09:24:51;99955.63;;;6.42;100.00
71666;BME280;59503;53.486;10.196;2023-10-19T09:27:19;99958.75;;;6.44;100.00
71666;BME280;59503;53.486;10.196;2023-10-19T09:29:45;99952.94;;;6.42;100.00
71666;BME280;59503;53.486;10.196;2023-10-19T09:32:11;99947.19;;;6.43;100.00
71666;BME280;59503;53.486;10.196;2023-10-19T09:34:40;99959.88;;;6.43;100.00
71666;BME280;59503;53.486;10.196;2023-10-19T09:37:09;99948.66;;;6.41;100.00
71666;BME280;59503;53.486;10.196;2023-10-19T09:39:35;99955.28;;;6.43;100.00
71666;BME280;59503;53.486;10.196;2023-10-19T09:42:06;99951.78;;;6.43;100.00
71666;BME280;59503;53.486;10.196;2023-10-19T09:44:47;99953.25;;;6.40;100.00
71666;BME280;59503;53.486;10.196;2023-10-19T09:47:26;99944.69;;;6.35;100.00
71666;BME280;59503;53.486;10.196;2023-10-19T09:49:52;99957.97;;;6.43;100.00
71666;BME280;59503;53.486;10.196;2023-10-19T09:52:17;99961.13;;;6.45;100.00
71666;BME280;59503;53.486;10.196;2023-10-19T09:54:54;99955.28;;;6.43;100.00
71666;BME280;59503;53.486;10.196;2023-10-19T09:57:29;99961.16;;;6.49;100.00
71666;BME280;59503;53.486;10.196;2023-10-19T10:00:00;99950.03;;;6.50;100.00
71666;BME280;59503;53.486;10.196;2023-10-19T10:02:34;99939.56;;;6.49;100.00
71666;BME280;59503;53.486;10.196;2023-10-19T10:04:59;99949.69;;;6.52;100.00
71666;BME280;59503;53.486;10.196;2023-10-19T10:07:25;99945.75;;;6.49;100.00
71666;BME280;59503;53.486;10.196;2023-10-19T10:09:51;99955.00;;;6.48;100.00
71666;BME280;59503;53.486;10.196;2023-10-19T10:12:17;99960.13;;;6.53;100.00
71666;BME280;59503;53.486;10.196;2023-10-19T10:15:03;99960.47;;;6.52;100.00
71666;BME280;59503;53.486;10.196;2023-10-19T10:17:37;99955.50;;;6.54;100.00
71666;BME280;59503;53.486;10.196;2023-10-19T10:22:42;99958.47;;;6.49;100.00
71666;BME280;59503;53.486;10.196;2023-10-19T10:25:25;99948.09;;;6.51;100.00
71666;BME280;59503;53.486;10.196;2023-10-19T10:27:54;99947.38;;;6.54;100.00
71666;BME280;59503;53.486;10.196;2023-10-19T10:30:20;99954.38;;;6.55;100.00
71666;BME280;59503;53.486;10.196;2023-10-19T10:32:46;99961.59;;;6.51;100.00
71666;BME280;59503;53.486;10.196;2023-10-19T10:38:08;99949.69;;;6.52;100.00
71666;BME280;59503;53.486;10.196;2023-10-19T10:40:45;99938.88;;;6.52;100.00
71666;BME280;59503;53.486;10.196;2023-10-19T10:43:11;99940.00;;;6.51;100.00
71666;BME280;59503;53.486;10.196;2023-10-19T10:45:37;99939.72;;;6.56;100.00
71666;BME280;59503;53.486;10.196;2023-10-19T10:48:03;99928.84;;;6.52;100.00
71666;BME280;59503;53.486;10.196;2023-10-19T10:50:29;99927.56;;;6.46;100.00
71666;BME280;59503;53.486;10.196;2023-10-19T10:52:54;99924.16;;;6.49;100.00
71666;BME280;59503;53.486;10.196;2023-10-19T10:55:24;99929.56;;;6.49;100.00
71666;BME280;59503;53.486;10.196;2023-10-19T10:57:54;99916.41;;;6.48;100.00
71666;BME280;59503;53.486;10.196;2023-10-19T11:00:22;99910.31;;;6.51;100.00
71666;BME280;59503;53.486;10.196;2023-10-19T11:03:06;99915.44;;;6.56;100.00
71666;BME280;59503;53.486;10.196;2023-10-19T11:05:38;99915.50;;;6.59;100.00
71666;BME280;59503;53.486;10.196;2023-10-19T11:08:13;99904.69;;;6.59;100.00
71666;BME280;59503;53.486;10.196;2023-10-19T11:10:40;99912.88;;;6.63;100.00
71666;BME280;59503;53.486;10.196;2023-10-19T11:13:14;99915.56;;;6.63;100.00
71666;BME280;59503;53.486;10.196;2023-10-19T11:15:51;99914.84;;;6.66;100.00
71666;BME280;59503;53.486;10.196;2023-10-19T11:18:50;99912.88;;;6.63;100.00
71666;BME280;59503;53.486;10.196;2023-10-19T11:21:16;99929.00;;;6.59;100.00
71666;BME280;59503;53.486;10.196;2023-10-19T11:23:48;99932.94;;;6.62;100.00
71666;BME280;59503;53.486;10.196;2023-10-19T11:26:20;99927.53;;;6.62;100.00
71666;BME280;59503;53.486;10.196;2023-10-19T11:28:46;99929.06;;;6.63;100.00
71666;BME280;59503;53.486;10.196;2023-10-19T11:31:23;99932.34;;;6.72;100.00
71666;BME280;59503;53.486;10.196;2023-10-19T11:33:50;99925.03;;;6.72;100.00
71666;BME280;59503;53.486;10.196;2023-10-19T11:36:17;99919.22;;;6.70;100.00
71666;BME280;59503;53.486;10.196;2023-10-19T11:38:44;99930.06;;;6.74;100.00
71666;BME280;59503;53.486;10.196;2023-10-19T11:41:11;99929.31;;;6.73;100.00
71666;BME280;59503;53.486;10.196;2023-10-19T11:43:39;99922.75;;;6.74;100.00
71666;BME280;59503;53.486;10.196;2023-10-19T11:46:06;99916.91;;;6.72;100.00
71666;BME280;59503;53.486;10.196;2023-10-19T11:48:33;99905.06;;;6.77;100.00
71666;BME280;59503;53.486;10.196;2023-10-19T11:50:59;99901.78;;;6.68;100.00
71666;BME280;59503;53.486;10.196;2023-10-19T11:53:26;99910.25;;;6.66;100.00
71666;BME280;59503;53.486;10.196;2023-10-19T11:55:51;99902.59;;;6.68;100.00
71666;BME280;59503;53.486;10.196;2023-10-19T11:58:17;99905.22;;;6.65;100.00
71666;BME280;59503;53.486;10.196;2023-10-19T12:00:42;99895.97;;;6.66;100.00
71666;BME280;59503;53.486;10.196;2023-10-19T12:03:12;99891.41;;;6.70;100.00
71666;BME280;59503;53.486;10.196;2023-10-19T12:05:39;99881.44;;;6.74;100.00
71666;BME280;59503;53.486;10.196;2023-10-19T12:08:05;99876.75;;;6.71;100.00
71666;BME280;59503;53.486;10.196;2023-10-19T12:10:32;99868.31;;;6.72;100.00
71666;BME280;59503;53.486;10.196;2023-10-19T12:13:06;99866.97;;;6.82;100.00
71666;BME280;59503;53.486;10.196;2023-10-19T12:15:33;99859.56;;;6.79;100.00
71666;BME280;59503;53.486;10.196;2023-10-19T12:17:59;99857.94;;;6.74;100.00
71666;BME280;59503;53.486;10.196;2023-10-19T12:20:25;99865.31;;;6.77;100.00
71666;BME280;59503;53.486;10.196;2023-10-19T12:22:51;99866.97;;;6.82;100.00
71666;BME280;59503;53.486;10.196;2023-10-19T12:25:20;99868.16;;;6.84;100.00
71666;BME280;59503;53.486;10.196;2023-10-19T12:28:03;99859.41;;;6.91;100.00
71666;BME280;59503;53.486;10.196;2023-10-19T12:30:29;99857.50;;;6.91;100.00
71666;BME280;59503;53.486;10.196;2023-10-19T12:33:01;99857.13;;;6.93;100.00
71666;BME280;59503;53.486;10.196;2023-10-19T12:35:26;99869.44;;;6.90;100.00
71666;BME280;59503;53.486;10.196;2023-10-19T12:38:10;99871.34;;;6.90;100.00
71666;BME280;59503;53.486;10.196;2023-10-19T12:40:44;99853.16;;;6.87;100.00
71666;BME280;59503;53.486;10.196;2023-10-19T12:43:11;99843.47;;;6.86;100.00
71666;BME280;59503;53.486;10.196;2023-10-19T12:45:38;99855.50;;;6.88;100.00
71666;BME280;59503;53.486;10.196;2023-10-19T12:48:04;99853.22;;;6.90;100.00
71666;BME280;59503;53.486;10.196;2023-10-19T12:50:30;99841.34;;;6.95;100.00
71666;BME280;59503;53.486;10.196;2023-10-19T12:52:56;99851.28;;;6.91;100.00
71666;BME280;59503;53.486;10.196;2023-10-19T12:55:22;99833.97;;;6.92;100.00
71666;BME280;59503;53.486;10.196;2023-10-19T12:57:48;99836.25;;;6.90;100.00
71666;BME280;59503;53.486;10.196;2023-10-19T13:00:16;99835.50;;;6.93;100.00